createdAt,value
2024-02-29T00:00:01.481Z,1
2024-02-29T00:01:02.124Z,1
2024-02-29T00:03:01.372Z,1
2024-02-29T00:04:01.811Z,1
2024-02-29T00:06:01.371Z,1.1
2024-02-29T00:07:01.639Z,1.1
2024-02-29T00:09:01.375Z,1.1
2024-02-29T00:10:01.829Z,1.1
2024-02-29T00:12:01.880Z,1.2
2024-02-29T00:13:01.553Z,1.2
2024-02-29T00:15:01.375Z,1.3
2024-02-29T00:16:01.671Z,1.3
2024-02-29T00:17:01.320Z,1.3
2024-02-29T00:18:01.730Z,1.3
2024-02-29T00:19:01.513Z,1.3
2024-02-29T00:20:01.426Z,1.3
2024-02-29T00:22:01.653Z,1.3
2024-02-29T00:23:01.299Z,1.3
2024-02-29T00:24:01.348Z,1.2
2024-02-29T00:25:01.805Z,1.2
2024-02-29T00:26:01.350Z,1.2
2024-02-29T00:27:01.368Z,1.1
2024-02-29T00:28:02.246Z,1.1
2024-02-29T00:30:01.496Z,1.1
2024-02-29T00:31:01.596Z,1
2024-02-29T00:32:01.265Z,0.9
2024-02-29T00:33:01.603Z,0.9
2024-02-29T00:34:01.893Z,0.9
2024-02-29T00:36:11.477Z,0.8
2024-02-29T00:38:01.288Z,0.8
2024-02-29T00:39:16.337Z,0.8
2024-02-29T00:41:01.311Z,0.7
2024-02-29T00:42:01.287Z,0.7
2024-02-29T00:43:01.705Z,0.8
2024-02-29T00:44:01.206Z,0.8
2024-02-29T00:45:01.329Z,0.8
2024-02-29T00:46:01.740Z,0.8
2024-02-29T00:48:01.685Z,0.9
2024-02-29T00:49:01.680Z,0.9
2024-02-29T00:51:01.346Z,1.1
2024-02-29T00:52:01.693Z,1.1
2024-02-29T00:54:01.294Z,1.2
2024-02-29T00:55:01.859Z,1.2
2024-02-29T00:57:01.391Z,1.2
2024-02-29T00:58:01.647Z,1.2
2024-02-29T00:59:01.252Z,1.2
2024-02-29T01:00:01.561Z,1.2
2024-02-29T01:01:01.903Z,1.2
2024-02-29T01:02:01.985Z,1.2
2024-02-29T01:03:01.223Z,1.1
2024-02-29T01:04:01.986Z,1.1
2024-02-29T01:06:01.337Z,1.1
2024-02-29T01:07:01.740Z,1.1
2024-02-29T01:09:01.373Z,1.1
2024-02-29T01:10:02.198Z,1.1
2024-02-29T01:11:01.472Z,1.1
2024-02-29T01:13:01.516Z,1
2024-02-29T01:14:01.271Z,0.9
2024-02-29T01:15:01.376Z,0.9
2024-02-29T01:16:01.714Z,0.9
2024-02-29T01:17:01.217Z,0.8
2024-02-29T01:18:01.681Z,0.8
2024-02-29T01:19:01.769Z,0.8
2024-02-29T01:21:01.281Z,0.8
2024-02-29T01:22:01.692Z,0.7
2024-02-29T01:24:01.387Z,0.7
2024-02-29T01:25:01.766Z,0.6
2024-02-29T01:26:01.339Z,0.6
2024-02-29T01:28:01.647Z,0.6
2024-02-29T01:29:01.303Z,0.6
2024-02-29T01:30:01.463Z,0.6
2024-02-29T01:31:01.799Z,0.6
2024-02-29T01:32:37.539Z,0.5
2024-02-29T01:34:01.651Z,0.5
2024-02-29T01:35:01.650Z,0.5
2024-02-29T01:37:01.547Z,0.6
2024-02-29T01:38:01.267Z,0.6
2024-02-29T01:39:01.329Z,0.6
2024-02-29T01:40:01.904Z,0.6
2024-02-29T01:41:01.261Z,0.6
2024-02-29T01:42:01.353Z,0.6
2024-02-29T01:43:01.727Z,0.6
2024-02-29T01:44:01.263Z,0.6
2024-02-29T01:45:01.471Z,0.6
2024-02-29T01:46:01.629Z,0.6
2024-02-29T01:48:01.749Z,0.6
2024-02-29T01:49:01.421Z,0.6
2024-02-29T01:50:01.531Z,0.7
2024-02-29T01:51:01.285Z,0.7
2024-02-29T01:52:01.722Z,0.7
2024-02-29T01:53:01.295Z,0.7
2024-02-29T01:54:01.318Z,0.8
2024-02-29T01:55:01.839Z,0.8
2024-02-29T01:56:01.238Z,0.8
2024-02-29T01:57:01.308Z,0.8
2024-02-29T01:58:01.618Z,0.8
2024-02-29T01:59:01.298Z,0.8
2024-02-29T02:00:01.411Z,0.8
2024-02-29T02:01:02.067Z,0.8
2024-02-29T02:03:01.270Z,0.8
2024-02-29T02:04:01.805Z,0.8
2024-02-29T02:07:01.739Z,0.8
2024-02-29T02:09:01.356Z,0.8
2024-02-29T02:10:01.858Z,0.7
2024-02-29T02:11:01.687Z,0.7
2024-02-29T02:13:01.899Z,0.7
2024-02-29T02:14:01.206Z,0.6
2024-02-29T02:15:01.367Z,0.6
2024-02-29T02:16:02.132Z,0.6
2024-02-29T02:17:01.262Z,0.6
2024-02-29T02:18:01.768Z,0.6
2024-02-29T02:19:01.537Z,0.5
2024-02-29T02:20:01.426Z,0.5
2024-02-29T02:21:01.398Z,0.4
2024-02-29T02:22:01.734Z,0.4
2024-02-29T02:23:01.336Z,0.4
2024-02-29T02:24:01.353Z,0.4
2024-02-29T02:25:01.899Z,0.4
2024-02-29T02:27:01.332Z,0.4
2024-02-29T02:28:01.800Z,0.4
2024-02-29T02:30:01.435Z,0.3
2024-02-29T02:31:01.822Z,0.3
2024-02-29T02:32:01.333Z,0.3
2024-02-29T02:33:01.741Z,0.3
2024-02-29T02:34:01.582Z,0.3
2024-02-29T02:35:01.265Z,0.4
2024-02-29T02:36:01.427Z,0.4
2024-02-29T02:37:01.654Z,0.4
2024-02-29T02:39:01.380Z,0.4
2024-02-29T02:40:02.046Z,0.5
2024-02-29T02:42:01.404Z,0.6
2024-02-29T02:43:01.655Z,0.6
2024-02-29T02:44:01.299Z,0.6
2024-02-29T02:45:01.630Z,0.7
2024-02-29T02:46:01.543Z,0.7
2024-02-29T02:48:01.723Z,0.8
2024-02-29T02:49:01.563Z,0.8
2024-02-29T02:50:01.402Z,0.9
2024-02-29T02:51:01.813Z,0.9
2024-02-29T02:52:01.648Z,0.9
2024-02-29T02:54:01.436Z,0.9
2024-02-29T02:55:02.166Z,0.9
2024-02-29T02:56:01.244Z,0.9
2024-02-29T02:57:01.346Z,1
2024-02-29T02:58:01.679Z,1
2024-02-29T02:59:01.245Z,1
2024-02-29T03:00:01.545Z,1
2024-02-29T03:01:01.524Z,0.9
2024-02-29T03:02:01.626Z,0.9
2024-02-29T03:03:01.437Z,0.9
2024-02-29T03:04:01.817Z,0.9
2024-02-29T03:05:01.420Z,1.1
2024-02-29T03:07:01.784Z,1.3
2024-02-29T03:09:01.293Z,1.4
2024-02-29T03:10:01.787Z,1.4
2024-02-29T03:11:01.469Z,1.3
2024-02-29T03:12:01.310Z,1.2
2024-02-29T03:13:01.787Z,1.2
2024-02-29T03:14:01.215Z,1.2
2024-02-29T03:15:01.461Z,1.2
2024-02-29T03:16:01.625Z,1.1
2024-02-29T03:18:02.486Z,1.1
2024-02-29T03:19:01.197Z,1.1
2024-02-29T03:20:01.471Z,1.1
2024-02-29T03:21:01.345Z,1.1
2024-02-29T03:22:01.568Z,1.1
2024-02-29T03:23:01.278Z,1.1
2024-02-29T03:24:01.298Z,1.1
2024-02-29T03:25:02.015Z,1
2024-02-29T03:26:01.269Z,1
2024-02-29T03:27:01.326Z,0.9
2024-02-29T03:28:01.541Z,0.9
2024-02-29T03:30:01.451Z,0.9
2024-02-29T03:31:01.628Z,0.8
2024-02-29T03:33:01.647Z,0.7
2024-02-29T03:34:01.727Z,0.7
2024-02-29T03:35:01.378Z,0.6
2024-02-29T03:36:01.491Z,0.6
2024-02-29T03:37:01.541Z,0.6
2024-02-29T03:38:01.339Z,0.5
2024-02-29T03:39:01.398Z,0.4
2024-02-29T03:40:01.861Z,0.4
2024-02-29T03:42:01.323Z,0.4
2024-02-29T03:43:01.684Z,0.3
2024-02-29T03:45:01.349Z,0.2
2024-02-29T03:46:01.773Z,0.2
2024-02-29T03:47:01.270Z,0.2
2024-02-29T03:48:01.578Z,0.2
2024-02-29T03:49:02.011Z,0.2
2024-02-29T03:50:01.279Z,0.2
2024-02-29T03:51:01.358Z,0.2
2024-02-29T03:52:01.590Z,0.2
2024-02-29T03:54:01.304Z,0.2
2024-02-29T03:55:01.947Z,0.2
2024-02-29T03:56:01.247Z,0.2
2024-02-29T03:57:01.325Z,0.2
2024-02-29T03:58:01.834Z,0.2
2024-02-29T03:59:01.244Z,0.2
2024-02-29T04:00:01.483Z,0.2
2024-02-29T04:01:01.795Z,0.2
2024-02-29T04:02:02.035Z,0.2
2024-02-29T04:03:01.244Z,0.2
2024-02-29T04:04:01.634Z,0.2
2024-02-29T04:05:01.362Z,0.2
2024-02-29T04:07:01.625Z,0.2
2024-02-29T04:09:01.280Z,0.2
2024-02-29T04:10:01.832Z,0.3
2024-02-29T04:12:01.384Z,0.3
2024-02-29T04:13:01.726Z,0.4
2024-02-29T04:14:01.282Z,0.4
2024-02-29T04:15:01.285Z,0.4
2024-02-29T04:16:01.723Z,0.5
2024-02-29T04:18:01.756Z,0.6
2024-02-29T04:19:01.557Z,0.6
2024-02-29T04:21:01.330Z,0.6
2024-02-29T04:22:01.853Z,0.6
2024-02-29T04:24:01.329Z,0.7
2024-02-29T04:25:01.653Z,0.7
2024-02-29T04:27:01.384Z,0.8
2024-02-29T04:28:01.805Z,0.8
2024-02-29T04:29:01.217Z,0.8
2024-02-29T04:30:01.379Z,0.8
2024-02-29T04:31:01.604Z,0.8
2024-02-29T04:32:01.707Z,0.8
2024-02-29T04:33:01.827Z,0.8
2024-02-29T04:35:01.289Z,0.9
2024-02-29T04:36:01.389Z,0.9
2024-02-29T04:37:01.440Z,0.9
2024-02-29T04:38:01.312Z,0.9
2024-02-29T04:39:01.346Z,0.9
2024-02-29T04:40:01.986Z,0.9
2024-02-29T04:42:01.358Z,0.8
2024-02-29T04:43:01.617Z,0.8
2024-02-29T04:44:01.275Z,0.8
2024-02-29T04:45:01.363Z,0.8
2024-02-29T04:46:01.867Z,0.8
2024-02-29T04:47:01.381Z,0.8
2024-02-29T04:48:01.643Z,0.7
2024-02-29T04:49:01.622Z,0.7
2024-02-29T04:51:01.379Z,0.6
2024-02-29T04:52:01.559Z,0.6
2024-02-29T04:53:01.282Z,0.6
2024-02-29T04:54:01.346Z,0.5
2024-02-29T04:55:02.118Z,0.5
2024-02-29T04:56:01.260Z,0.4
2024-02-29T04:57:01.299Z,0.4
2024-02-29T04:58:01.683Z,0.4
2024-02-29T04:59:01.244Z,0.4
2024-02-29T05:00:01.521Z,0.4
2024-02-29T05:01:01.782Z,0.3
2024-02-29T05:02:08.651Z,0.3
2024-02-29T05:04:02.223Z,0.2
2024-02-29T05:06:01.489Z,0.3
2024-02-29T05:07:01.699Z,0.3
2024-02-29T05:08:01.293Z,0.4
2024-02-29T05:09:01.457Z,0.4
2024-02-29T05:10:02.012Z,0.4
2024-02-29T05:11:01.578Z,0.4
2024-02-29T05:12:01.366Z,0.4
2024-02-29T05:13:02.004Z,0.4
2024-02-29T05:15:01.401Z,0.5
2024-02-29T05:16:01.698Z,0.5
2024-02-29T05:17:01.485Z,0.5
2024-02-29T05:18:02.323Z,0.4
2024-02-29T05:19:01.378Z,0.4
2024-02-29T05:20:01.493Z,0.4
2024-02-29T05:21:01.240Z,0.4
2024-02-29T05:22:01.686Z,0.4
2024-02-29T05:24:01.338Z,0.4
2024-02-29T05:25:01.691Z,0.4
2024-02-29T05:27:01.424Z,0.4
2024-02-29T05:28:01.658Z,0.3
2024-02-29T05:29:01.349Z,0.3
2024-02-29T05:30:01.442Z,0.2
2024-02-29T05:31:01.700Z,0.2
2024-02-29T05:32:01.340Z,0.2
2024-02-29T05:33:01.652Z,0.2
2024-02-29T05:34:01.531Z,0.2
2024-02-29T05:35:01.417Z,0.2
2024-02-29T05:36:01.449Z,0.2
2024-02-29T05:37:01.447Z,0.2
2024-02-29T05:38:01.273Z,0.2
2024-02-29T05:39:01.367Z,0.2
2024-02-29T05:40:02.124Z,0.2
2024-02-29T05:42:01.318Z,0.1
2024-02-29T05:43:01.882Z,0.1
2024-02-29T05:45:01.496Z,0.1
2024-02-29T05:46:01.777Z,0.1
2024-02-29T05:47:01.368Z,0.1
2024-02-29T05:48:01.742Z,0.1
2024-02-29T05:52:01.704Z,0.1
2024-02-29T05:54:01.360Z,0.2
2024-02-29T05:55:02.152Z,0.2
2024-02-29T05:57:07.161Z,0.4
2024-02-29T05:59:01.322Z,0.5
2024-02-29T06:00:01.443Z,0.6
2024-02-29T06:01:02.235Z,0.6
2024-02-29T06:02:02.685Z,0.6
2024-02-29T06:04:02.020Z,0.6
2024-02-29T06:06:01.354Z,0.7
2024-02-29T06:07:01.649Z,0.7
2024-02-29T06:08:01.345Z,0.7
2024-02-29T06:09:01.430Z,0.7
2024-02-29T06:10:01.937Z,0.7
2024-02-29T06:12:01.527Z,0.8
2024-02-29T06:13:01.771Z,0.8
2024-02-29T06:14:01.300Z,0.8
2024-02-29T06:15:01.359Z,0.9
2024-02-29T06:16:01.745Z,0.9
2024-02-29T06:17:01.310Z,0.9
2024-02-29T06:18:01.706Z,1
2024-02-29T06:19:01.604Z,1
2024-02-29T06:20:01.346Z,1.1
2024-02-29T06:21:01.315Z,1.1
2024-02-29T06:22:01.754Z,1.1
2024-02-29T06:24:01.300Z,1.2
2024-02-29T06:25:01.778Z,1.2
2024-02-29T06:26:01.314Z,1.2
2024-02-29T06:27:01.358Z,1.3
2024-02-29T06:28:01.855Z,1.4
2024-02-29T06:30:01.355Z,1.4
2024-02-29T06:31:01.797Z,1.5
2024-02-29T06:33:02.240Z,1.5
2024-02-29T06:35:01.384Z,1.6
2024-02-29T06:36:01.325Z,1.6
2024-02-29T06:37:01.660Z,1.6
2024-02-29T06:39:01.339Z,1.7
2024-02-29T06:40:02.667Z,1.8
2024-02-29T06:41:01.228Z,1.8
2024-02-29T06:42:01.366Z,1.8
2024-02-29T06:43:01.689Z,1.8
2024-02-29T06:44:01.318Z,1.9
2024-02-29T06:45:01.503Z,1.9
2024-02-29T06:46:01.605Z,2
2024-02-29T06:47:01.386Z,2
2024-02-29T06:48:01.812Z,2.1
2024-02-29T06:49:01.587Z,2.1
2024-02-29T06:50:01.576Z,2.1
2024-02-29T06:51:01.242Z,2.2
2024-02-29T06:52:01.714Z,2.2
2024-02-29T06:54:01.343Z,2.4
2024-02-29T06:55:01.645Z,2.4
2024-02-29T06:56:01.321Z,2.5
2024-02-29T06:57:01.399Z,2.6
2024-02-29T06:58:01.786Z,2.6
2024-02-29T06:59:01.234Z,2.7
2024-02-29T07:00:01.430Z,2.8
2024-02-29T07:01:01.932Z,2.8
2024-02-29T07:02:01.939Z,2.9
2024-02-29T07:03:01.393Z,2.9
2024-02-29T07:04:01.702Z,3
2024-02-29T07:05:01.625Z,3.1
2024-02-29T07:06:01.295Z,3.1
2024-02-29T07:07:01.830Z,3.1
2024-02-29T07:08:01.310Z,3.2
2024-02-29T07:09:01.372Z,3.2
2024-02-29T07:10:02.212Z,3.3
2024-02-29T07:11:03.760Z,3.4
2024-02-29T07:13:01.820Z,3.4
2024-02-29T07:15:01.349Z,3.5
2024-02-29T07:16:01.791Z,3.6
2024-02-29T07:17:01.302Z,3.6
2024-02-29T07:18:01.776Z,3.6
2024-02-29T07:19:01.517Z,3.7
2024-02-29T07:20:01.587Z,3.7
2024-02-29T07:21:01.285Z,3.8
2024-02-29T07:22:01.709Z,3.8
2024-02-29T07:23:01.250Z,3.9
2024-02-29T07:24:01.331Z,3.9
2024-02-29T07:25:01.952Z,3.9
2024-02-29T07:26:01.359Z,4
2024-02-29T07:27:01.362Z,4
2024-02-29T07:28:01.809Z,4.1
2024-02-29T07:29:01.227Z,4.1
2024-02-29T07:30:01.565Z,4.2
2024-02-29T07:31:01.754Z,4.2
2024-02-29T07:32:01.350Z,4.2
2024-02-29T07:33:01.683Z,4.3
2024-02-29T07:34:01.736Z,4.4
2024-02-29T07:36:01.379Z,4.4
2024-02-29T07:37:01.626Z,4.5
2024-02-29T07:38:01.282Z,4.5
2024-02-29T07:39:01.359Z,4.6
2024-02-29T07:40:02.859Z,4.6
2024-02-29T07:42:01.293Z,4.8
2024-02-29T07:43:02.149Z,4.8
2024-02-29T07:44:01.358Z,4.8
2024-02-29T07:45:01.301Z,4.8
2024-02-29T07:46:01.969Z,4.9
2024-02-29T07:47:01.239Z,4.9
2024-02-29T07:48:01.952Z,4.9
2024-02-29T07:49:01.491Z,4.9
2024-02-29T07:51:01.353Z,5
2024-02-29T07:52:01.822Z,5.1
2024-02-29T07:53:01.398Z,5.1
2024-02-29T07:54:01.286Z,5.2
2024-02-29T07:55:02.111Z,5.2
2024-02-29T07:56:01.313Z,5.4
2024-02-29T07:57:01.329Z,5.5
2024-02-29T07:58:01.781Z,5.6
2024-02-29T07:59:01.253Z,5.7
2024-02-29T08:00:01.462Z,6
2024-02-29T08:01:02.368Z,6.8
2024-02-29T08:02:02.107Z,7.6
2024-02-29T08:04:01.714Z,9.4
2024-02-29T08:05:01.499Z,9.9
2024-02-29T08:06:01.314Z,10.2
2024-02-29T08:07:01.714Z,10.8
2024-02-29T08:08:01.251Z,11.5
2024-02-29T08:09:01.401Z,12.2
2024-02-29T08:10:01.582Z,12.8
2024-02-29T08:12:01.699Z,13.5
2024-02-29T08:13:01.574Z,13.9
2024-02-29T08:14:01.365Z,14.2
2024-02-29T08:15:01.585Z,14.6
2024-02-29T08:16:01.689Z,14.8
2024-02-29T08:17:01.285Z,15.1
2024-02-29T08:18:01.804Z,15.4
2024-02-29T08:19:01.648Z,15.6
2024-02-29T08:21:01.610Z,16.2
2024-02-29T08:22:01.612Z,16.4
2024-02-29T08:23:01.283Z,16.5
2024-02-29T08:24:01.329Z,16.7
2024-02-29T08:25:01.927Z,16.8
2024-02-29T08:26:01.301Z,16.8
2024-02-29T08:27:01.288Z,16.8
2024-02-29T08:28:01.676Z,17.1
2024-02-29T08:29:01.215Z,17.4
2024-02-29T08:30:01.421Z,17.7
2024-02-29T08:31:01.584Z,17.9
2024-02-29T08:32:01.686Z,18.1
2024-02-29T08:33:01.553Z,18.2
2024-02-29T08:34:01.938Z,18.3
2024-02-29T08:36:01.387Z,18.7
2024-02-29T08:37:02.022Z,18.9
2024-02-29T08:39:01.353Z,18.9
2024-02-29T08:40:01.773Z,18.8
2024-02-29T08:41:01.307Z,18.8
2024-02-29T08:42:01.466Z,18.9
2024-02-29T08:43:01.663Z,18.9
2024-02-29T08:45:01.433Z,19.1
2024-02-29T08:46:01.700Z,19.2
2024-02-29T08:47:01.317Z,19.1
2024-02-29T08:48:01.727Z,19.1
2024-02-29T08:49:05.391Z,19.1
2024-02-29T08:51:01.316Z,19.4
2024-02-29T08:52:01.733Z,19.6
2024-02-29T08:53:01.300Z,19.7
2024-02-29T08:54:01.810Z,19.8
2024-02-29T08:55:01.838Z,19.9
2024-02-29T08:57:01.356Z,20.1
2024-02-29T08:58:01.607Z,20.2
2024-02-29T08:59:01.280Z,20.5
2024-02-29T09:00:01.519Z,20.8
2024-02-29T09:01:02.187Z,20.9
2024-02-29T09:02:01.810Z,20.9
2024-02-29T09:04:01.683Z,21.2
2024-02-29T09:05:01.324Z,21.3
2024-02-29T09:06:01.347Z,21.5
2024-02-29T09:07:01.731Z,21.8
2024-02-29T09:08:01.358Z,22
2024-02-29T09:09:01.437Z,22.2
2024-02-29T09:10:01.972Z,22.3
2024-02-29T09:11:01.761Z,22.4
2024-02-29T09:13:36.820Z,22.6
2024-02-29T09:15:01.377Z,22.6
2024-02-29T09:16:02.008Z,22.7
2024-02-29T09:18:01.560Z,22.8
2024-02-29T09:19:05.690Z,22.9
2024-02-29T09:21:01.358Z,23.1
2024-02-29T09:22:01.825Z,23.3
2024-02-29T09:24:01.364Z,23.5
2024-02-29T09:25:02.063Z,23.6
2024-02-29T09:26:01.206Z,23.6
2024-02-29T09:27:01.443Z,23.6
2024-02-29T09:28:01.601Z,23.7
2024-02-29T09:29:01.279Z,23.8
2024-02-29T09:30:01.511Z,23.9
2024-02-29T09:31:01.914Z,24.1
2024-02-29T09:32:01.358Z,24.2
2024-02-29T09:33:01.639Z,24.2
2024-02-29T09:34:01.933Z,24.4
2024-02-29T09:35:01.247Z,24.6
2024-02-29T09:36:01.358Z,24.7
2024-02-29T09:37:01.543Z,24.8
2024-02-29T09:38:01.240Z,24.9
2024-02-29T09:39:01.427Z,24.9
2024-02-29T09:40:06.888Z,25
2024-02-29T09:43:01.600Z,25.2
2024-02-29T09:44:01.518Z,25.3
2024-02-29T09:45:01.436Z,25.3
2024-02-29T09:46:01.568Z,25.4
2024-02-29T09:47:01.253Z,25.5
2024-02-29T09:48:01.527Z,25.6
2024-02-29T09:49:01.720Z,25.8
2024-02-29T09:50:07.213Z,25.9
2024-02-29T09:52:01.724Z,26.1
2024-02-29T09:53:01.213Z,26.2
2024-02-29T09:54:01.520Z,26.4
2024-02-29T09:55:01.846Z,26.5
2024-02-29T09:57:01.418Z,26.8
2024-02-29T09:58:01.995Z,26.9
2024-02-29T10:00:01.393Z,27.1
2024-02-29T10:01:01.954Z,27.1
2024-02-29T10:02:02.616Z,27.2
2024-02-29T10:03:01.206Z,27.2
2024-02-29T10:04:01.960Z,27.3
2024-02-29T10:05:01.205Z,27.4
2024-02-29T10:06:01.446Z,27.4
2024-02-29T10:07:01.382Z,27.5
2024-02-29T10:08:07.934Z,27.6
2024-02-29T10:10:01.890Z,27.8
2024-02-29T10:11:01.409Z,27.8
2024-02-29T10:12:01.669Z,27.7
2024-02-29T10:13:01.887Z,27.6
2024-02-29T10:14:01.220Z,27.6
2024-02-29T10:15:01.558Z,27.6
2024-02-29T10:16:01.577Z,27.6
2024-02-29T10:18:02.012Z,27.6
2024-02-29T10:20:01.443Z,27.7
2024-02-29T10:21:01.390Z,27.8
2024-02-29T10:22:01.764Z,27.9
2024-02-29T10:23:01.285Z,28.1
2024-02-29T10:24:01.393Z,28.2
2024-02-29T10:25:01.854Z,28.5
2024-02-29T10:26:01.284Z,28.8
2024-02-29T10:27:01.425Z,29
2024-02-29T10:28:01.894Z,29.3
2024-02-29T10:30:01.325Z,29.8
2024-02-29T10:31:01.818Z,29.9
2024-02-29T10:33:01.617Z,30.3
2024-02-29T10:34:01.631Z,30.4
2024-02-29T10:35:01.269Z,30.2
2024-02-29T10:36:01.323Z,30.2
2024-02-29T10:37:01.668Z,30.2
2024-02-29T10:38:01.230Z,30.1
2024-02-29T10:39:01.945Z,29.9
2024-02-29T10:40:09.171Z,29.6
2024-02-29T10:42:01.323Z,29.4
2024-02-29T10:43:01.807Z,29.4
2024-02-29T10:45:01.475Z,29.4
2024-02-29T10:46:01.645Z,29.4
2024-02-29T10:47:01.253Z,29.2
2024-02-29T10:48:02.030Z,29
2024-02-29T10:50:01.417Z,28.8
2024-02-29T10:51:01.331Z,28.8
2024-02-29T10:52:01.735Z,28.8
2024-02-29T10:53:01.286Z,28.7
2024-02-29T10:54:01.487Z,28.6
2024-02-29T10:55:01.746Z,28.5
2024-02-29T10:56:01.289Z,28.5
2024-02-29T10:57:01.341Z,28.6
2024-02-29T10:58:01.864Z,28.8
2024-02-29T10:59:01.248Z,28.8
2024-02-29T11:00:01.361Z,28.8
2024-02-29T11:01:02.190Z,28.6
2024-02-29T11:02:02.658Z,28.6
2024-02-29T11:03:01.227Z,28.4
2024-02-29T11:04:02.142Z,28.4
2024-02-29T11:06:01.404Z,28.4
2024-02-29T11:07:01.480Z,28.3
2024-02-29T11:09:01.337Z,28.3
2024-02-29T11:10:01.916Z,28.4
2024-02-29T11:11:01.537Z,28.4
2024-02-29T11:13:01.706Z,28.6
2024-02-29T11:15:01.492Z,28.9
2024-02-29T11:16:01.577Z,29.1
2024-02-29T11:17:01.469Z,29.2
2024-02-29T11:18:02.006Z,29.2
2024-02-29T11:20:01.868Z,29.4
2024-02-29T11:21:01.301Z,29.4
2024-02-29T11:22:01.751Z,29.4
2024-02-29T11:23:12.495Z,29.6
2024-02-29T11:25:02.661Z,29.9
2024-02-29T11:27:01.365Z,29.9
2024-02-29T11:28:01.494Z,29.9
2024-02-29T11:30:01.714Z,30.1
2024-02-29T11:31:01.564Z,30.1
2024-02-29T11:33:01.539Z,30.1
2024-02-29T11:34:01.738Z,29.9
2024-02-29T11:36:01.368Z,29.9
2024-02-29T11:37:01.515Z,29.9
2024-02-29T11:38:01.401Z,29.9
2024-02-29T11:39:01.429Z,29.9
2024-02-29T11:40:01.750Z,29.9
2024-02-29T11:41:01.261Z,29.9
2024-02-29T11:42:01.388Z,30
2024-02-29T11:43:01.758Z,29.9
2024-02-29T11:44:01.275Z,29.9
2024-02-29T11:45:01.429Z,30
2024-02-29T11:46:01.695Z,30.1
2024-02-29T11:48:01.887Z,30.1
2024-02-29T11:49:01.699Z,30.1
2024-02-29T11:50:02.161Z,30.2
2024-02-29T11:52:01.743Z,30.3
2024-02-29T11:53:01.279Z,30.4
2024-02-29T11:54:01.465Z,30.4
2024-02-29T11:55:01.713Z,30.4
2024-02-29T11:56:18.042Z,30.4
2024-02-29T11:58:01.854Z,30.5
2024-02-29T11:59:01.310Z,30.6
2024-02-29T12:00:01.426Z,30.8
2024-02-29T12:01:01.942Z,30.9
2024-02-29T12:02:01.710Z,30.8
2024-02-29T12:04:01.679Z,30.5
2024-02-29T12:05:01.535Z,30.3
2024-02-29T12:07:01.591Z,30.1
2024-02-29T12:09:01.300Z,30.2
2024-02-29T12:10:01.600Z,30.2
2024-02-29T12:11:01.769Z,30.2
2024-02-29T12:12:01.340Z,30.2
2024-02-29T12:13:01.880Z,30.1
2024-02-29T12:14:01.186Z,29.9
2024-02-29T12:15:01.377Z,29.8
2024-02-29T12:16:01.656Z,29.8
2024-02-29T12:17:01.286Z,29.9
2024-02-29T12:18:01.491Z,30.1
2024-02-29T12:19:01.577Z,30.2
2024-02-29T12:21:01.439Z,30.2
2024-02-29T12:22:01.599Z,30.1
2024-02-29T12:23:01.310Z,29.9
2024-02-29T12:24:01.429Z,29.8
2024-02-29T12:25:01.743Z,29.6
2024-02-29T12:26:01.230Z,29.5
2024-02-29T12:27:01.340Z,29.4
2024-02-29T12:28:01.614Z,29.2
2024-02-29T12:30:01.451Z,29.2
2024-02-29T12:31:01.658Z,29.1
2024-02-29T12:32:01.311Z,29.1
2024-02-29T12:33:01.560Z,29.2
2024-02-29T12:34:01.877Z,29.2
2024-02-29T12:36:01.644Z,29.4
2024-02-29T12:37:01.786Z,29.4
2024-02-29T12:38:01.262Z,29.4
2024-02-29T12:39:01.507Z,29.5
2024-02-29T12:40:02.022Z,29.5
2024-02-29T12:41:02.414Z,29.5
2024-02-29T12:43:01.629Z,29.5
2024-02-29T12:44:03.090Z,29.5
2024-02-29T12:46:01.801Z,29.6
2024-02-29T12:47:01.337Z,29.7
2024-02-29T12:48:01.667Z,29.8
2024-02-29T12:49:01.566Z,29.7
2024-02-29T12:50:01.405Z,29.6
2024-02-29T12:51:01.334Z,29.6
2024-02-29T12:52:01.983Z,29.5
2024-02-29T12:54:01.537Z,29.4
2024-02-29T12:55:01.524Z,29.3
2024-02-29T12:56:01.365Z,29.4
2024-02-29T12:57:01.385Z,29.4
2024-02-29T12:58:01.780Z,29.4
2024-02-29T12:59:01.388Z,29.4
2024-02-29T13:00:01.449Z,29.4
2024-02-29T13:01:02.508Z,29.4
2024-02-29T13:02:02.169Z,29.4
2024-02-29T13:04:01.834Z,29.4
2024-02-29T13:06:01.553Z,29.4
2024-02-29T13:07:01.622Z,29.2
2024-02-29T13:08:01.264Z,29.1
2024-02-29T13:09:03.228Z,28.9
2024-02-29T13:11:01.416Z,28.7
2024-02-29T13:12:01.658Z,28.7
2024-02-29T13:13:12.439Z,28.6
2024-02-29T13:15:01.407Z,28.6
2024-02-29T13:16:02.390Z,28.4
2024-02-29T13:18:02.245Z,28.1
2024-02-29T13:20:01.572Z,28.1
2024-02-29T13:21:07.211Z,28.2
2024-02-29T13:23:01.367Z,28.2
2024-02-29T13:24:01.322Z,28.2
2024-02-29T13:25:02.164Z,28.2
2024-02-29T13:26:03.621Z,28.2
2024-02-29T13:28:01.672Z,27.9
2024-02-29T13:29:01.255Z,27.8
2024-02-29T13:30:01.390Z,27.6
2024-02-29T13:31:01.672Z,27.4
2024-02-29T13:32:06.441Z,27.3
2024-02-29T13:34:01.656Z,27.2
2024-02-29T13:35:01.354Z,27.2
2024-02-29T13:37:01.527Z,27.4
2024-02-29T13:38:01.453Z,27.4
2024-02-29T13:39:01.297Z,27.3
2024-02-29T13:40:01.976Z,27.3
2024-02-29T13:41:01.290Z,27.2
2024-02-29T13:43:01.896Z,27.1
2024-02-29T13:44:01.227Z,26.9
2024-02-29T13:45:01.433Z,26.8
2024-02-29T13:46:01.780Z,26.7
2024-02-29T13:48:01.708Z,26.5
2024-02-29T13:49:24.407Z,26.4
2024-02-29T13:51:01.305Z,26.1
2024-02-29T13:52:01.668Z,26
2024-02-29T13:53:01.378Z,25.9
2024-02-29T13:55:01.529Z,25.8
2024-02-29T13:56:01.491Z,25.8
2024-02-29T13:57:01.369Z,25.6
2024-02-29T13:58:01.654Z,25.5
2024-02-29T13:59:01.269Z,25.4
2024-02-29T14:00:01.460Z,25.3
2024-02-29T14:01:02.066Z,25.2
2024-02-29T14:02:02.012Z,25.2
2024-02-29T14:03:01.332Z,25.1
2024-02-29T14:04:01.643Z,24.9
2024-02-29T14:05:01.497Z,24.8
2024-02-29T14:06:01.925Z,24.7
2024-02-29T14:08:01.460Z,24.5
2024-02-29T14:09:01.318Z,24.4
2024-02-29T14:10:01.770Z,24.4
2024-02-29T14:11:01.499Z,24.3
2024-02-29T14:12:01.351Z,24.2
2024-02-29T14:13:01.718Z,24.2
2024-02-29T14:14:01.290Z,24.2
2024-02-29T14:15:01.376Z,24.1
2024-02-29T14:16:02.568Z,24.1
2024-02-29T14:17:01.204Z,24.1
2024-02-29T14:18:01.507Z,24.1
2024-02-29T14:19:01.753Z,24
2024-02-29T14:20:01.384Z,23.9
2024-02-29T14:21:01.395Z,23.9
2024-02-29T14:22:01.566Z,23.9
2024-02-29T14:23:01.353Z,23.9
2024-02-29T14:24:01.367Z,23.9
2024-02-29T14:25:01.619Z,23.9
2024-02-29T14:26:01.693Z,23.9
2024-02-29T14:27:01.320Z,24
2024-02-29T14:28:01.694Z,24.1
2024-02-29T14:29:02.627Z,24.1
2024-02-29T14:31:01.605Z,24
2024-02-29T14:32:01.441Z,24
2024-02-29T14:33:01.866Z,24
2024-02-29T14:34:01.493Z,24.1
2024-02-29T14:35:01.278Z,24.2
2024-02-29T14:36:01.641Z,24.2
2024-02-29T14:37:01.533Z,24.1
2024-02-29T14:38:01.279Z,24.1
2024-02-29T14:39:01.395Z,24
2024-02-29T14:40:02.255Z,23.9
2024-02-29T14:42:01.385Z,23.7
2024-02-29T14:43:01.796Z,23.6
2024-02-29T14:45:01.458Z,23.3
2024-02-29T14:46:02.249Z,23.1
2024-02-29T14:47:01.232Z,22.9
2024-02-29T14:48:01.946Z,22.7
2024-02-29T14:49:01.709Z,22.6
2024-02-29T14:51:01.319Z,22.2
2024-02-29T14:52:01.546Z,22.2
2024-02-29T14:54:01.634Z,22
2024-02-29T14:55:01.931Z,21.9
2024-02-29T14:56:01.288Z,21.8
2024-02-29T14:57:01.340Z,21.7
2024-02-29T14:58:01.624Z,21.5
2024-02-29T14:59:01.316Z,21.3
2024-02-29T15:00:01.357Z,21
2024-02-29T15:01:02.130Z,20.8
2024-02-29T15:02:02.426Z,20.6
2024-02-29T15:03:01.244Z,20.4
2024-02-29T15:04:01.668Z,20.3
2024-02-29T15:05:01.263Z,20.3
2024-02-29T15:06:01.457Z,20.2
2024-02-29T15:07:01.526Z,20.2
2024-02-29T15:08:01.269Z,20.2
2024-02-29T15:09:01.402Z,20.2
2024-02-29T15:10:01.677Z,20.2
2024-02-29T15:12:01.572Z,20.2
2024-02-29T15:13:01.644Z,20.1
2024-02-29T15:14:01.372Z,20.1
2024-02-29T15:15:01.379Z,20
2024-02-29T15:16:02.004Z,20
2024-02-29T15:18:01.712Z,19.8
2024-02-29T15:19:01.584Z,19.6
2024-02-29T15:20:01.421Z,19.4
2024-02-29T15:22:01.591Z,19.1
2024-02-29T15:23:01.295Z,19
2024-02-29T15:24:01.311Z,18.9
2024-02-29T15:25:01.874Z,18.9
2024-02-29T15:26:01.260Z,18.8
2024-02-29T15:27:01.717Z,18.6
2024-02-29T15:28:01.966Z,18.4
2024-02-29T15:29:01.267Z,18.2
2024-02-29T15:30:01.598Z,18
2024-02-29T15:31:01.955Z,17.7
2024-02-29T15:32:01.314Z,17.4
2024-02-29T15:33:01.602Z,17.1
2024-02-29T15:34:01.714Z,17
2024-02-29T15:35:01.195Z,16.9
2024-02-29T15:36:01.321Z,16.8
2024-02-29T15:37:01.527Z,16.8
2024-02-29T15:38:01.318Z,16.8
2024-02-29T15:39:01.412Z,16.7
2024-02-29T15:40:01.953Z,16.6
2024-02-29T15:41:01.342Z,16.5
2024-02-29T15:42:01.299Z,16.4
2024-02-29T15:43:01.710Z,16.4
2024-02-29T15:45:01.499Z,16.1
2024-02-29T15:46:01.677Z,16
2024-02-29T15:47:01.297Z,15.8
2024-02-29T15:48:01.702Z,15.6
2024-02-29T15:49:01.612Z,15.5
2024-02-29T15:50:01.378Z,15.4
2024-02-29T15:51:01.390Z,15.2
2024-02-29T15:52:01.892Z,15.1
2024-02-29T15:53:01.293Z,15
2024-02-29T15:54:01.568Z,14.9
2024-02-29T15:55:01.753Z,14.8
2024-02-29T15:56:06.233Z,14.8
2024-02-29T15:58:01.614Z,14.6
2024-02-29T16:00:01.437Z,14.4
2024-02-29T16:01:01.645Z,14.4
2024-02-29T16:02:01.652Z,14.3
2024-02-29T16:03:01.313Z,14.2
2024-02-29T16:04:01.783Z,14.1
2024-02-29T16:06:01.412Z,14
2024-02-29T16:07:01.786Z,14
2024-02-29T16:09:01.428Z,13.9
2024-02-29T16:10:01.884Z,13.8
2024-02-29T16:12:01.950Z,13.6